Time;durP1;ratioP1;P1;durP2;ratioP2;P2;SDS_P1;SDS_P2;PMS_P1;PMS_P2;Temp;Humidity;BMP_temperature;BMP_pressure;BME280_temperature;BME280_humidity;BME280_pressure;Samples;Min_cycle;Max_cycle;Signal;HPM_P1;HPM_P2
2021/09/02 05:15:00;;;;;;;;;37.00;30.25;;;;;15.03;66.12;102245.72;5158534;23;45451;-71
2021/09/02 05:17:25;;;;;;;;;42.50;35.00;;;;;15.01;65.95;102239.59;4903611;29;47544;-71
2021/09/02 05:19:51;;;;;;;;;47.50;35.75;;;;;14.98;65.99;102236.16;4886547;29;47158;-72
2021/09/02 05:22:16;;;;;;;;;39.25;32.50;;;;;14.96;66.18;102234.41;4904682;29;46656;-71
2021/09/02 05:24:41;;;;;;;;;34.50;31.50;;;;;14.96;65.81;102241.50;4904900;29;45439;-72
2021/09/02 05:27:07;;;;;;;;;44.00;35.50;;;;;14.95;66.22;102237.09;4905078;29;45312;-72
2021/09/02 05:29:33;;;;;;;;;39.25;34.75;;;;;14.92;66.17;102250.41;4886102;29;46041;-72
2021/09/02 05:31:58;;;;;;;;;44.25;32.50;;;;;14.90;66.13;102231.06;4904610;29;46535;-72
2021/09/02 05:34:23;;;;;;;;;32.00;29.00;;;;;14.87;66.42;102226.72;4887744;29;45664;-72
2021/09/02 05:36:49;;;;;;;;;41.25;34.00;;;;;14.88;66.23;102219.66;4904610;29;45438;-72
2021/09/02 05:39:14;;;;;;;;;38.75;29.00;;;;;14.88;66.37;102227.59;4904564;29;45435;-72
2021/09/02 05:41:39;;;;;;;;;42.25;29.75;;;;;14.89;66.70;102226.69;4887474;29;47146;-71
2021/09/02 05:44:06;;;;;;;;;36.25;31.75;;;;;14.85;66.27;102234.72;4887480;29;45672;-72
2021/09/02 05:46:32;;;;;;;;;45.75;36.75;;;;;14.81;66.65;102240.97;4903802;29;45387;-72
2021/09/02 05:48:57;;;;;;;;;45.50;36.00;;;;;14.77;66.47;102241.94;4903025;29;45469;-72
2021/09/02 05:51:22;;;;;;;;;42.00;35.00;;;;;14.76;66.73;102239.34;4903278;29;46556;-72
2021/09/02 05:53:48;;;;;;;;;42.75;34.25;;;;;14.76;66.63;102244.66;4885537;29;45383;-72
2021/09/02 05:56:13;;;;;;;;;48.75;36.25;;;;;14.77;66.54;102249.88;4901211;29;45473;-72
2021/09/02 05:58:38;;;;;;;;;38.75;35.00;;;;;14.78;66.86;102251.63;4892557;29;45737;-72
2021/09/02 06:01:04;;;;;;;;;48.00;36.75;;;;;14.81;66.67;102251.56;4900297;29;47829;-72
2021/09/02 06:03:29;;;;;;;;;42.50;30.25;;;;;14.81;66.75;102248.91;4902447;29;45366;-72
2021/09/02 06:05:54;;;;;;;;;46.75;35.00;;;;;14.84;66.60;102253.25;4902128;29;45479;-72
2021/09/02 06:08:20;;;;;;;;;44.75;35.25;;;;;14.83;66.48;102246.22;4884646;29;45901;-73
2021/09/02 06:10:45;;;;;;;;;42.00;35.25;;;;;14.84;66.29;102243.53;4901914;29;45434;-73
2021/09/02 06:13:10;;;;;;;;;44.75;34.75;;;;;14.88;66.48;102251.41;4883551;29;45451;-72
2021/09/02 06:15:36;;;;;;;;;39.75;34.75;;;;;14.89;66.56;102245.22;4885610;29;45347;-72
2021/09/02 06:18:01;;;;;;;;;48.00;39.25;;;;;14.91;66.60;102251.34;4903471;29;45569;-73
2021/09/02 06:20:28;;;;;;;;;47.00;39.50;;;;;14.92;66.35;102246.00;4900421;29;46078;-72
2021/09/02 06:22:54;;;;;;;;;45.00;35.50;;;;;14.94;66.38;102253.88;4903404;29;45492;-72
2021/09/02 06:25:19;;;;;;;;;45.25;36.25;;;;;14.96;66.48;102254.75;4903524;29;45423;-72
2021/09/02 06:27:45;;;;;;;;;47.50;36.50;;;;;14.95;66.55;102253.00;4902146;29;45325;-71
2021/09/02 06:30:10;;;;;;;;;51.00;36.75;;;;;15.00;66.49;102256.38;4902146;29;45366;-71
2021/09/02 06:32:36;;;;;;;;;47.50;34.75;;;;;14.99;66.56;102251.97;4903061;29;45359;-71
2021/09/02 06:35:01;;;;;;;;;50.25;37.00;;;;;15.06;66.50;102256.19;4902719;29;45395;-71
2021/09/02 06:37:27;;;;;;;;;42.25;36.00;;;;;15.12;66.61;102260.47;4902074;29;45487;-71
2021/09/02 06:39:52;;;;;;;;;45.00;35.75;;;;;15.17;66.50;102247.09;4902506;29;45460;-72
2021/09/02 06:42:17;;;;;;;;;43.00;34.50;;;;;15.21;66.03;102255.84;4901028;29;45507;-71
2021/09/02 06:44:43;;;;;;;;;43.50;34.00;;;;;15.19;65.94;102247.91;4901905;29;45511;-71
2021/09/02 06:47:08;;;;;;;;;35.00;30.50;;;;;15.20;66.24;102252.31;4902951;29;45524;-72
2021/09/02 06:49:34;;;;;;;;;39.25;33.25;;;;;15.25;66.03;102253.06;4885439;29;47591;-71
2021/09/02 06:51:59;;;;;;;;;48.75;34.50;;;;;15.28;65.94;102258.25;4902579;29;45486;-71
2021/09/02 06:54:25;;;;;;;;;44.75;34.00;;;;;15.27;66.33;102256.53;4902332;29;45354;-72
2021/09/02 06:56:50;;;;;;;;;42.00;34.75;;;;;15.26;66.05;102260.06;4902137;29;45390;-72
2021/09/02 06:59:15;;;;;;;;;48.25;35.25;;;;;15.26;66.39;102260.06;4901516;29;45529;-72
2021/09/02 07:01:41;;;;;;;;;44.50;38.00;;;;;15.28;66.33;102258.25;4901121;29;45747;-72
2021/09/02 07:04:06;;;;;;;;;48.75;37.75;;;;;15.30;65.99;102256.44;4902551;29;45381;-72
2021/09/02 07:06:31;;;;;;;;;46.25;36.00;;;;;15.33;66.26;102249.31;4901546;29;45487;-72
2021/09/02 07:08:57;;;;;;;;;38.75;33.00;;;;;15.36;66.30;102252.72;4901810;29;45550;-72
2021/09/02 07:11:22;;;;;;;;;42.00;35.75;;;;;15.41;66.21;102242.00;4901784;29;45505;-72
2021/09/02 07:13:47;;;;;;;;;34.25;30.50;;;;;15.48;65.87;102246.19;4902584;29;45394;-73
2021/09/02 07:16:13;;;;;;;;;45.25;32.75;;;;;15.55;65.91;102253.97;4885359;29;46385;-72
2021/09/02 07:18:38;;;;;;;;;41.75;33.25;;;;;15.56;65.81;102259.22;4900644;29;47305;-72
2021/09/02 07:21:04;;;;;;;;;43.25;34.00;;;;;15.64;65.78;102266.94;4901534;29;45336;-72
2021/09/02 07:23:29;;;;;;;;;41.50;33.25;;;;;15.66;65.67;102267.75;4901997;29;45480;-72
2021/09/02 07:25:54;;;;;;;;;39.25;29.00;;;;;15.69;65.95;102270.31;4900775;29;45529;-72
2021/09/02 07:28:20;;;;;;;;;47.50;35.50;;;;;15.74;65.49;102271.06;4901707;29;45387;-72
2021/09/02 07:30:45;;;;;;;;;42.50;33.50;;;;;15.82;65.87;102260.22;4902242;29;45348;-72
2021/09/02 07:33:11;;;;;;;;;34.25;29.75;;;;;15.91;66.15;102266.13;4886267;29;45312;-72
2021/09/02 07:35:37;;;;;;;;;42.75;29.25;;;;;15.96;65.64;102262.44;4902437;29;45439;-73
2021/09/02 07:38:03;;;;;;;;;36.50;29.50;;;;;16.06;65.21;102272.78;4902839;29;46339;-72
2021/09/02 07:40:28;;;;;;;;;31.25;28.00;;;;;16.10;64.89;102266.44;4902642;29;45265;-72
2021/09/02 07:42:54;;;;;;;;;35.25;30.25;;;;;16.15;64.97;102269.81;4886036;29;45256;-72
2021/09/02 07:45:19;;;;;;;;;42.50;31.25;;;;;16.19;64.65;102260.88;4902590;29;45224;-73
2021/09/02 07:47:45;;;;;;;;;35.00;27.75;;;;;16.23;64.94;102264.28;4868120;29;48083;-72
2021/09/02 07:50:11;;;;;;;;;37.50;29.50;;;;;16.29;64.84;102261.44;4892812;29;45463;-72
2021/09/02 07:52:38;;;;;;;;;37.75;31.75;;;;;16.34;64.47;102252.44;4898175;29;45754;-72
2021/09/02 07:55:06;;;;;;;;;36.75;28.25;;;;;16.40;64.69;102255.75;4890606;29;46313;-72
2021/09/02 07:57:31;;;;;;;;;35.50;28.75;;;;;16.45;64.46;102246.75;4900697;29;46494;-72
2021/09/02 07:59:56;;;;;;;;;33.50;25.75;;;;;16.49;64.23;102251.06;4885271;29;45436;-72
2021/09/02 08:02:22;;;;;;;;;31.75;23.50;;;;;16.54;64.40;102249.97;4902699;29;45261;-72
2021/09/02 08:04:47;;;;;;;;;34.50;27.25;;;;;16.59;64.25;102254.28;4881117;29;47495;-72
2021/09/02 08:07:12;;;;;;;;;30.75;24.75;;;;;16.64;64.13;102252.34;4899746;29;45596;-72
2021/09/02 08:09:38;;;;;;;;;29.25;25.50;;;;;16.67;64.04;102251.38;4902036;29;45289;-72
2021/09/02 08:12:03;;;;;;;;;27.50;22.75;;;;;16.72;64.15;102246.72;4901398;29;45445;-72
2021/09/02 08:14:28;;;;;;;;;33.75;23.50;;;;;16.75;63.51;102255.47;4903929;28;45268;-72
2021/09/02 08:16:54;;;;;;;;;28.75;21.50;;;;;16.84;64.11;102246.31;4904753;29;46407;-72
2021/09/02 08:19:19;;;;;;;;;35.75;25.50;;;;;16.91;63.99;102248.75;4904133;29;45387;-72
2021/09/02 08:21:44;;;;;;;;;32.25;23.00;;;;;16.96;63.52;102239.69;4904320;29;45525;-72
2021/09/02 08:24:10;;;;;;;;;25.25;22.50;;;;;17.03;63.96;102242.13;4899920;29;47225;-73
2021/09/02 08:26:36;;;;;;;;;28.50;26.25;;;;;17.06;63.59;102232.25;4895934;29;46956;-73
2021/09/02 08:29:01;;;;;;;;;36.50;30.25;;;;;17.10;63.21;102231.22;4904873;29;45378;-73
2021/09/02 08:31:28;;;;;;;;;27.75;23.50;;;;;17.15;62.91;102228.44;4885523;29;45340;-73
2021/09/02 08:33:53;;;;;;;;;25.00;22.50;;;;;17.19;63.60;102222.06;4885504;29;46159;-73
2021/09/02 08:36:19;;;;;;;;;31.25;27.00;;;;;17.24;63.10;102219.22;4903364;29;45522;-73
2021/09/02 08:38:47;;;;;;;;;29.50;24.25;;;;;17.30;63.07;102227.00;4903689;29;46772;-73
2021/09/02 08:41:17;;;;;;;;;28.00;24.50;;;;;17.34;62.84;102219.75;4905506;29;45211;-73
2021/09/02 08:43:45;;;;;;;;;27.75;26.25;;;;;17.39;62.95;102224.88;4887168;29;46929;-73
2021/09/02 08:46:11;;;;;;;;;25.25;23.75;;;;;17.41;62.98;102217.72;4887452;29;46579;-73
2021/09/02 08:48:44;;;;;;;;;28.50;24.75;;;;;17.48;62.80;102213.91;4904424;29;45828;-73
2021/09/02 08:51:10;;;;;;;;;34.75;29.00;;;;;17.53;62.36;102203.94;4904078;29;45703;-73
2021/09/02 08:53:36;;;;;;;;;32.50;26.00;;;;;17.59;62.65;102201.97;4887330;29;45471;-73
2021/09/02 08:56:01;;;;;;;;;24.50;22.00;;;;;17.63;62.45;102206.28;4904811;29;46000;-73
2021/09/02 08:58:29;;;;;;;;;30.50;21.50;;;;;17.69;62.42;102210.47;4885534;29;45313;-73
2021/09/02 09:00:54;;;;;;;;;25.25;22.00;;;;;17.70;61.26;102213.06;4884708;29;45266;-73
2021/09/02 09:03:20;;;;;;;;;30.50;26.75;;;;;17.72;61.58;102211.22;4903679;29;45598;-73
2021/09/02 09:05:53;;;;;;;;;33.75;28.50;;;;;17.74;61.56;102212.00;4903997;29;46464;-73
2021/09/02 09:08:18;;;;;;;;;29.50;21.25;;;;;17.79;62.15;102205.63;4901179;29;45259;-73
2021/09/02 09:10:45;;;;;;;;;25.25;23.25;;;;;17.84;61.78;102199.22;4903713;29;45471;-73
2021/09/02 09:13:11;;;;;;;;;22.25;20.50;;;;;17.91;61.41;102199.81;4904467;29;45149;-73
2021/09/02 09:15:42;;;;;;;;;27.00;22.75;;;;;17.96;61.44;102202.28;4904662;29;45782;-73
2021/09/02 09:18:24;;;;;;;;;21.25;17.00;;;;;18.04;61.61;102199.31;4884313;29;45856;-73
2021/09/02 09:21:17;;;;;;;;;28.00;22.50;;;;;18.15;60.77;102193.56;4888912;29;45458;-73
2021/09/02 09:24:04;;;;;;;;;27.00;22.00;;;;;18.24;61.38;102189.66;4901522;29;45328;-73
2021/09/02 09:26:31;;;;;;;;;27.25;24.75;;;;;18.29;61.09;102183.22;4903544;29;45474;-73
2021/09/02 09:29:15;;;;;;;;;23.50;21.25;;;;;18.36;60.76;102183.81;4902935;29;45618;-73
2021/09/02 09:31:41;;;;;;;;;25.50;21.75;;;;;18.44;60.98;102175.50;4893084;29;45368;-72
2021/09/02 09:34:07;;;;;;;;;23.00;22.75;;;;;18.49;60.68;102177.97;4902711;29;45545;-72
2021/09/02 09:36:36;;;;;;;;;24.75;22.75;;;;;18.52;60.15;102175.19;4886386;29;46105;-72
2021/09/02 09:39:10;;;;;;;;;26.75;22.25;;;;;18.59;60.68;102181.09;4904224;29;45823;-72
2021/09/02 09:41:42;;;;;;;;;19.75;18.25;;;;;18.65;60.55;102171.03;4902978;29;45455;-72
2021/09/02 09:44:25;;;;;;;;;21.00;15.00;;;;;18.74;60.54;102172.38;4891691;29;46367;-72
2021/09/02 09:47:09;;;;;;;;;22.75;20.75;;;;;18.82;60.04;102163.19;4900980;29;46042;-72
2021/09/02 09:50:00;;;;;;;;;21.50;18.50;;;;;18.91;60.03;102167.25;4883045;29;45400;-72
2021/09/02 09:52:32;;;;;;;;;21.25;18.25;;;;;18.97;59.65;102166.94;4893652;29;45405;-72
2021/09/02 09:55:13;;;;;;;;;25.00;23.25;;;;;19.03;59.79;102171.16;4901693;29;45457;-72
2021/09/02 09:57:40;;;;;;;;;21.50;20.50;;;;;19.08;59.43;102175.34;4899907;29;45719;-72
2021/09/02 10:00:11;;;;;;;;;30.00;20.75;;;;;19.12;59.39;102174.25;4903040;29;45477;-72
2021/09/02 10:02:42;;;;;;;;;26.00;21.50;;;;;19.19;59.33;102171.31;4882630;29;45378;-72
2021/09/02 10:05:09;;;;;;;;;22.50;19.25;;;;;19.23;59.44;102172.91;4900107;29;45552;-73
2021/09/02 10:07:36;;;;;;;;;26.25;19.25;;;;;19.30;58.77;102168.16;4887098;29;47156;-72
2021/09/02 10:10:04;;;;;;;;;22.50;18.25;;;;;19.33;59.12;102150.19;4903075;29;45326;-72
2021/09/02 10:12:34;;;;;;;;;22.75;18.25;;;;;19.38;58.38;102157.13;4886878;29;45433;-72
2021/09/02 10:15:06;;;;;;;;;23.50;17.75;;;;;19.41;58.53;102147.16;4889253;29;47082;-72
2021/09/02 10:17:33;;;;;;;;;20.75;16.25;;;;;19.45;58.60;102153.22;4890989;29;45635;-72
2021/09/02 10:20:01;;;;;;;;;20.50;19.00;;;;;19.50;58.26;102153.88;4903106;29;45245;-72
2021/09/02 10:22:27;;;;;;;;;17.75;16.00;;;;;19.56;58.22;102139.34;4903718;29;45272;-71
2021/09/02 10:24:53;;;;;;;;;22.50;20.25;;;;;19.62;58.03;102141.72;4903179;29;45415;-72
2021/09/02 10:27:21;;;;;;;;;18.50;16.00;;;;;19.67;57.23;102136.16;4903076;29;46198;-72
2021/09/02 10:29:46;;;;;;;;;16.00;13.75;;;;;19.73;57.50;102132.34;4886506;29;45534;-72
2021/09/02 10:32:24;;;;;;;;;23.00;18.75;;;;;19.82;57.86;102141.69;4887034;29;45258;-72
2021/09/02 10:34:49;;;;;;;;;16.75;15.00;;;;;19.88;58.06;102138.69;4902219;29;45467;-72
2021/09/02 10:37:41;;;;;;;;;17.67;16.67;;;;;19.94;57.45;102127.72;4886113;29;46935;-72
2021/09/02 10:40:29;;;;;;;;;17.00;16.75;;;;;20.00;57.44;102130.06;4903770;29;45277;-72
2021/09/02 10:42:57;;;;;;;;;25.00;20.50;;;;;20.07;57.47;102127.97;4893273;29;45504;-72
2021/09/02 10:45:25;;;;;;;;;15.50;12.50;;;;;20.15;57.13;102137.41;4902399;29;45395;-72
2021/09/02 10:47:51;;;;;;;;;20.00;17.50;;;;;20.22;56.98;102136.16;4886096;29;47165;-72
2021/09/02 10:50:21;;;;;;;;;22.00;19.25;;;;;20.27;57.06;102136.78;4903663;29;45852;-72
2021/09/02 10:52:46;;;;;;;;;18.50;12.50;;;;;20.32;56.51;102136.53;4900816;29;45465;-72
2021/09/02 10:55:33;;;;;;;;;18.50;16.25;;;;;20.38;55.94;102140.66;4902093;29;45342;-72
2021/09/02 10:58:07;;;;;;;;;18.00;15.75;;;;;20.41;55.32;102136.03;4902412;29;45359;-72
2021/09/02 11:00:41;;;;;;;;;15.75;13.50;;;;;20.46;55.78;102136.66;4879186;29;45737;-72
2021/09/02 11:03:15;;;;;;;;;17.75;14.00;;;;;20.45;55.59;102134.91;4895805;29;45552;-72
2021/09/02 11:05:49;;;;;;;;;16.00;14.50;;;;;20.45;55.59;102124.22;4892406;29;45472;-72
2021/09/02 11:08:31;;;;;;;;;16.25;16.25;;;;;20.52;55.54;102130.09;4903414;29;45534;-72
2021/09/02 11:11:11;;;;;;;;;14.75;14.50;;;;;20.58;54.86;102136.94;4903394;29;45585;-72
2021/09/02 11:13:37;;;;;;;;;16.00;13.75;;;;;20.66;54.57;102136.53;4902307;29;45312;-75
2021/09/02 11:16:10;;;;;;;;;15.50;12.50;;;;;20.74;55.15;102130.78;4901603;29;45571;-76
2021/09/02 11:18:50;;;;;;;;;19.00;16.50;;;;;20.79;54.97;102139.41;4896703;29;45418;-75
2021/09/02 11:21:17;;;;;;;;;14.75;12.75;;;;;20.89;54.92;102137.09;4902802;29;45541;-75
2021/09/02 11:23:45;;;;;;;;;16.25;13.00;;;;;20.95;54.55;102139.41;4902695;29;45420;-75
2021/09/02 11:26:27;;;;;;;;;17.75;14.50;;;;;21.01;54.45;102141.75;4901080;29;45524;-76
2021/09/02 11:28:52;;;;;;;;;15.50;15.25;;;;;21.05;54.06;102131.78;4902494;29;45293;-76
2021/09/02 17:05:39;;;;;;;;;13.75;11.00;;;;;23.21;44.24;101835.69;4923875;23;45702;-75
2021/09/02 17:08:04;;;;;;;;;9.75;8.75;;;;;23.21;44.15;101841.91;4915165;28;45306;-75
2021/09/02 17:10:30;;;;;;;;;12.25;10.00;;;;;23.25;44.85;101848.78;4916800;28;45512;-75
2021/09/02 17:12:55;;;;;;;;;15.00;13.25;;;;;23.22;44.49;101848.13;4911768;28;45446;-75
2021/09/02 17:15:21;;;;;;;;;11.00;10.25;;;;;23.21;44.21;101839.22;4923902;28;45390;-75
2021/09/02 17:17:46;;;;;;;;;8.00;8.00;;;;;23.18;45.12;101826.03;4917245;28;45432;-75
2021/09/02 17:20:13;;;;;;;;;13.25;11.50;;;;;23.21;45.49;101844.56;4923898;28;45252;-75
2021/09/02 17:22:38;;;;;;;;;11.75;11.25;;;;;23.11;45.32;101839.00;4918796;28;45459;-75
2021/09/02 17:25:05;;;;;;;;;10.50;9.75;;;;;23.07;44.67;101837.50;4916005;28;45446;-74
2021/09/02 17:27:34;;;;;;;;;9.00;9.00;;;;;23.03;45.15;101836.00;4914541;28;45426;-74
2021/09/02 17:29:59;;;;;;;;;12.00;10.75;;;;;22.99;46.30;101831.84;4916256;28;45415;-74
2021/09/02 17:32:25;;;;;;;;;13.00;10.50;;;;;22.99;45.63;101830.00;4919871;28;46374;-74
2021/09/02 17:34:50;;;;;;;;;10.25;9.50;;;;;22.95;46.09;101833.00;4917092;28;45578;-75
2021/09/02 17:37:19;;;;;;;;;9.25;9.25;;;;;22.89;46.22;101835.13;4923430;28;45441;-75
2021/09/02 17:39:46;;;;;;;;;10.25;9.25;;;;;22.85;45.06;101838.13;4915111;28;45455;-75
2021/09/02 17:42:12;;;;;;;;;13.00;10.50;;;;;22.79;45.66;101820.66;4909446;28;45403;-75
2021/09/02 17:44:37;;;;;;;;;14.00;11.75;;;;;22.78;45.21;101830.53;4923866;28;45518;-75
2021/09/02 17:47:03;;;;;;;;;13.00;9.75;;;;;22.76;45.50;101837.81;4921919;28;45525;-75
2021/09/02 17:49:29;;;;;;;;;10.25;10.25;;;;;22.77;45.89;101834.16;4910312;28;45418;-75
2021/09/02 17:51:55;;;;;;;;;13.75;11.25;;;;;22.77;45.54;101834.16;4921410;28;46343;-75
2021/09/02 17:54:21;;;;;;;;;12.25;10.50;;;;;22.79;44.99;101839.44;4923244;28;45430;-75
2021/09/02 17:56:46;;;;;;;;;9.00;9.00;;;;;22.79;44.79;101836.75;4917821;28;45423;-75
2021/09/02 17:59:12;;;;;;;;;13.50;11.50;;;;;22.77;45.16;101839.50;4920135;28;45500;-75
2021/09/02 18:01:37;;;;;;;;;14.00;12.00;;;;;22.76;45.16;101839.63;4917063;28;45222;-75
2021/09/02 18:04:02;;;;;;;;;18.25;14.50;;;;;22.74;45.49;101842.41;4913110;28;45445;-75
2021/09/02 18:06:28;;;;;;;;;13.25;12.25;;;;;22.73;45.10;101839.81;4923524;28;45131;-75
2021/09/02 18:08:53;;;;;;;;;18.25;11.50;;;;;22.75;45.19;101836.09;4897906;28;46943;-74
2021/09/02 18:11:18;;;;;;;;;12.50;11.50;;;;;22.70;45.79;101832.84;4921146;28;46069;-75
2021/09/02 18:13:44;;;;;;;;;11.25;10.25;;;;;22.70;45.21;101839.06;4911558;28;45408;-75
2021/09/02 18:16:09;;;;;;;;;13.50;12.25;;;;;22.64;45.23;101834.13;4917613;28;45217;-75
2021/09/02 18:18:35;;;;;;;;;12.50;11.25;;;;;22.62;45.16;101827.97;4903932;28;45346;-77
2021/09/02 18:21:00;;;;;;;;;13.25;12.50;;;;;22.62;45.74;101833.34;4922137;28;45458;-78
2021/09/02 18:23:25;;;;;;;;;14.25;11.25;;;;;22.55;45.69;101829.34;4910459;28;46758;-79
2021/09/02 18:25:51;;;;;;;;;13.00;13.00;;;;;22.52;45.69;101832.25;4923319;28;45216;-79
2021/09/02 18:28:16;;;;;;;;;11.25;11.25;;;;;22.48;45.36;101832.47;4913933;28;45575;-73
2021/09/02 18:30:42;;;;;;;;;13.25;12.00;;;;;22.47;45.43;101835.25;4919241;28;46336;-74
2021/09/02 18:33:07;;;;;;;;;12.50;12.50;;;;;22.47;45.99;101837.94;4909796;28;45317;-73
2021/09/02 18:35:32;;;;;;;;;15.50;14.75;;;;;22.39;45.30;101838.44;4921052;28;45851;-73
2021/09/02 18:37:58;;;;;;;;;16.50;11.75;;;;;22.41;45.47;101849.03;4904815;28;45770;-73
2021/09/02 18:40:24;;;;;;;;;12.25;9.50;;;;;22.40;46.06;101850.84;4897297;28;46990;-74
2021/09/02 18:42:56;;;;;;;;;11.50;11.25;;;;;22.37;45.94;101848.38;4905173;28;46186;-74
2021/09/02 18:45:23;;;;;;;;;14.50;14.00;;;;;22.36;45.59;101849.34;4922664;28;45413;-73
2021/09/02 18:47:50;;;;;;;;;9.75;9.50;;;;;22.34;46.54;101857.50;4905434;28;45409;-73
2021/09/02 18:50:17;;;;;;;;;15.00;11.50;;;;;22.28;46.15;101857.00;4915027;28;45406;-74
2021/09/02 18:52:44;;;;;;;;;13.75;11.75;;;;;22.25;46.26;101864.28;4922276;28;45339;-74
2021/09/02 18:55:10;;;;;;;;;12.75;11.50;;;;;22.20;46.80;101865.56;4905046;28;45240;-74
2021/09/02 18:57:35;;;;;;;;;15.75;15.50;;;;;22.10;47.14;101866.13;4915734;28;45439;-74
2021/09/02 19:00:01;;;;;;;;;13.25;11.50;;;;;22.03;46.84;101857.66;4905475;28;47229;-73
2021/09/02 19:02:27;;;;;;;;;13.75;13.00;;;;;21.97;47.40;101868.78;4921410;28;45206;-74
2021/09/02 19:05:02;;;;;;;;;13.00;13.00;;;;;21.91;46.95;101871.81;4912086;28;45292;-74
2021/09/02 19:07:28;;;;;;;;;14.50;12.50;;;;;21.85;47.97;101882.91;4915039;28;45328;-74
2021/09/02 19:09:55;;;;;;;;;17.25;15.25;;;;;21.74;48.32;101876.41;4909147;28;45341;-74
2021/09/02 19:12:22;;;;;;;;;13.00;11.25;;;;;21.66;47.98;101878.69;4921462;28;45469;-74
2021/09/02 19:14:48;;;;;;;;;16.00;12.00;;;;;21.61;47.81;101881.66;4922563;28;45357;-74
2021/09/02 19:17:15;;;;;;;;;18.00;15.25;;;;;21.54;48.53;101880.31;4901920;28;45953;-74
2021/09/02 19:19:41;;;;;;;;;14.25;14.25;;;;;21.50;48.66;101887.69;4895635;29;48296;-74
2021/09/02 19:22:09;;;;;;;;;15.00;14.75;;;;;21.44;49.05;101888.91;4918530;28;45321;-74
2021/09/02 19:24:39;;;;;;;;;20.25;14.25;;;;;21.42;48.77;101898.84;4916842;28;45359;-74
2021/09/02 19:27:06;;;;;;;;;25.00;16.50;;;;;21.35;49.29;101895.69;4909361;28;45507;-75
2021/09/02 19:29:40;;;;;;;;;19.25;17.75;;;;;21.29;49.37;101895.19;4903552;28;48001;-74
2021/09/02 19:32:08;;;;;;;;;23.75;20.25;;;;;21.22;49.98;101902.72;4922058;28;45227;-74
2021/09/02 19:34:36;;;;;;;;;30.50;25.25;;;;;21.11;49.07;101890.84;4898280;28;45527;-74
2021/09/02 19:37:03;;;;;;;;;27.25;22.25;;;;;21.08;49.25;101896.41;4921923;28;45478;-74
2021/09/02 19:39:32;;;;;;;;;23.25;22.25;;;;;21.06;49.82;101901.00;4902835;28;48523;-75
2021/09/02 19:41:58;;;;;;;;;24.25;21.50;;;;;21.04;49.46;101894.84;4908553;28;45736;-74
2021/09/02 19:44:26;;;;;;;;;23.00;21.00;;;;;21.00;49.78;101898.63;4916440;28;45522;-75
2021/09/02 19:46:52;;;;;;;;;20.25;18.50;;;;;20.96;50.15;101889.94;4921951;28;45273;-75
2021/09/02 19:49:18;;;;;;;;;22.00;19.25;;;;;20.91;50.22;101892.88;4901352;28;46963;-74
2021/09/02 19:51:44;;;;;;;;;21.25;18.25;;;;;20.90;50.33;101892.97;4894891;28;45356;-75
2021/09/02 19:54:09;;;;;;;;;16.75;16.25;;;;;20.84;50.40;101890.69;4904097;28;45618;-74
2021/09/02 19:56:39;;;;;;;;;16.25;15.75;;;;;20.79;49.73;101883.78;4912245;28;45172;-74
2021/09/02 19:59:08;;;;;;;;;21.25;20.50;;;;;20.78;49.98;101886.53;4901332;28;47138;-74
2021/09/02 20:01:33;;;;;;;;;16.00;13.75;;;;;;;;4921139;28;45513;-75
2021/09/02 20:04:05;;;;;;;;;15.00;12.50;;;;;20.81;49.95;101886.38;4901883;28;45208;-75
2021/09/02 20:06:39;;;;;;;;;15.25;12.75;;;;;20.76;50.32;101883.97;4910397;28;45343;-75
2021/09/02 20:09:04;;;;;;;;;17.00;13.75;;;;;20.79;50.54;101882.94;4920930;28;45478;-74
2021/09/02 20:11:31;;;;;;;;;14.25;13.00;;;;;20.78;50.07;101875.84;4922478;28;45359;-74
2021/09/02 20:13:57;;;;;;;;;16.00;15.00;;;;;20.78;50.47;101878.53;4907850;28;45322;-74
2021/09/02 20:16:28;;;;;;;;;16.25;14.00;;;;;20.73;50.25;101875.25;4920187;28;45434;-74
2021/09/02 20:18:55;;;;;;;;;15.00;13.25;;;;;20.74;50.15;101877.00;4924690;28;45558;-74
2021/09/02 20:21:23;;;;;;;;;14.00;12.25;;;;;20.71;50.33;101871.81;4924608;28;45426;-74
2021/09/02 20:23:49;;;;;;;;;17.25;14.75;;;;;20.71;50.65;101878.03;4912385;28;45316;-74
2021/09/02 20:26:17;;;;;;;;;12.00;12.00;;;;;20.72;50.14;101873.56;4921723;28;45455;-74
2021/09/02 20:28:45;;;;;;;;;15.00;12.00;;;;;20.68;50.52;101868.38;4922666;28;45395;-74
2021/09/02 20:31:12;;;;;;;;;13.50;13.00;;;;;20.69;50.74;101863.91;4924873;28;45545;-74
2021/09/02 20:33:39;;;;;;;;;12.00;11.50;;;;;20.69;50.54;101869.25;4905848;28;45340;-74
2021/09/02 20:36:11;;;;;;;;;13.25;12.00;;;;;20.67;50.24;101860.44;4905473;28;47283;-74
2021/09/02 20:38:38;;;;;;;;;16.00;14.00;;;;;20.67;50.62;101877.34;4924838;28;45342;-74
2021/09/02 20:41:08;;;;;;;;;14.25;14.25;;;;;20.67;50.48;101871.13;4924228;28;45208;-74
2021/09/02 20:43:38;;;;;;;;;13.00;12.50;;;;;20.65;50.65;101863.22;4913685;28;45672;-75
2021/09/02 20:46:05;;;;;;;;;16.50;15.25;;;;;20.62;50.32;101867.91;4924168;28;45322;-75
2021/09/02 20:48:32;;;;;;;;;14.50;11.00;;;;;20.61;50.23;101876.84;4913039;28;45246;-75
2021/09/02 20:50:59;;;;;;;;;14.25;12.50;;;;;20.60;50.68;101867.97;4913083;28;45396;-75
2021/09/02 20:53:32;;;;;;;;;14.50;13.25;;;;;20.58;50.34;101869.88;4916322;28;45336;-74
2021/09/02 20:55:58;;;;;;;;;13.75;13.00;;;;;20.58;50.74;101870.72;4923555;28;45378;-75
2021/09/02 20:58:25;;;;;;;;;22.75;18.75;;;;;20.59;50.46;101874.28;4921569;28;45738;-75
2021/09/02 21:00:51;;;;;;;;;24.00;21.75;;;;;20.56;50.15;101861.09;4920331;28;45410;-75
2021/09/02 21:03:20;;;;;;;;;19.25;18.25;;;;;20.56;50.81;101861.09;4913665;28;45314;-76
2021/09/02 21:05:49;;;;;;;;;26.25;21.00;;;;;20.56;50.65;101863.75;4919947;28;45555;-75
2021/09/02 21:08:15;;;;;;;;;26.00;22.75;;;;;20.55;50.40;101864.69;4918274;28;45554;-75
2021/09/02 21:10:44;;;;;;;;;35.75;29.75;;;;;20.55;50.35;101867.34;4912289;28;45403;-75
2021/09/02 21:13:12;;;;;;;;;27.50;21.25;;;;;20.57;50.25;101868.13;4905023;28;45312;-75
2021/09/02 21:15:38;;;;;;;;;21.50;19.00;;;;;20.55;50.73;101864.69;4922916;28;45241;-74
2021/09/02 21:18:03;;;;;;;;;24.75;20.75;;;;;20.55;50.22;101868.22;4922926;28;45654;-74
2021/09/02 21:20:29;;;;;;;;;24.00;19.25;;;;;20.56;50.33;101869.97;4923478;28;45315;-74
2021/09/02 21:23:05;;;;;;;;;19.00;18.00;;;;;20.59;50.41;101874.28;4924135;28;45541;-75
2021/09/02 21:25:35;;;;;;;;;18.50;17.25;;;;;20.60;50.99;101880.44;4922416;28;45332;-75
2021/09/02 21:28:12;;;;;;;;;18.00;14.75;;;;;20.56;50.58;101879.78;4917172;28;45333;-75
2021/09/02 21:31:07;;;;;;;;;17.75;15.00;;;;;20.54;50.73;101887.03;4887764;29;45662;-75
2021/09/02 21:33:44;;;;;;;;;16.50;15.75;;;;;20.50;50.80;101874.78;4887909;29;45400;-75
2021/09/02 21:36:12;;;;;;;;;14.75;14.00;;;;;20.48;50.94;101874.00;4916821;28;45944;-75
2021/09/02 21:38:45;;;;;;;;;15.75;13.25;;;;;20.44;50.80;101874.22;4916566;28;46775;-75
2021/09/02 21:41:14;;;;;;;;;16.25;13.50;;;;;20.41;50.91;101874.38;4904850;29;45328;-75
2021/09/02 21:43:56;;;;;;;;;15.25;13.75;;;;;20.41;51.52;101871.69;4887962;29;45279;-75
2021/09/02 21:46:41;;;;;;;;;16.75;14.00;;;;;20.37;51.46;101871.97;4909042;28;45264;-76
2021/09/02 21:49:09;;;;;;;;;14.50;12.75;;;;;20.35;52.08;101866.69;4918166;28;46314;-75
2021/09/02 21:51:36;;;;;;;;;11.75;11.50;;;;;20.34;51.71;101865.84;4923807;28;45224;-74
2021/09/02 21:54:07;;;;;;;;;14.75;14.75;;;;;20.31;52.17;101873.16;4913910;28;45333;-75
2021/09/02 21:56:33;;;;;;;;;15.00;14.00;;;;;20.29;52.33;101867.06;4918861;28;45513;-77
2021/09/02 21:58:59;;;;;;;;;12.25;12.25;;;;;20.28;52.71;101868.84;4923620;28;46075;-77
2021/09/02 22:01:26;;;;;;;;;17.00;15.50;;;;;20.25;52.71;101871.69;4923503;28;45426;-77